Edam, Netherlands
Current Conditions -  °F | °C
As of 2:25 PM on Friday 24 Oct 2014 (Local Time) from EHAM Reporting Station
Drizzle Drizzle  
Wind Chill: 54°   Ceiling: 700
Heat Index: 54°   Visibility: 2.5mi
Dew Point: 54°   Wind: 12mph
Humidity: 100%   Direction: 180°S
Pressure: 30"   Gusts: NA
Location:  52.51°N, 5.05°E
Report Text: EHAM 241225Z 18010KT 150V210 4000 -DZ FEW004 SCT006 BKN00712/12 Q1016 TEMPO 6000
Loading
Personal Weather Stations






























Interactive Weather Map
Tropical Storm Tracking
New forecast layout! Learn more

10-Day Weather Forecast

Advertisements
Track Severe Weather on mobile